sensor_id;sensor_type;location;lat;lon;timestamp;pressure;altitude;pressure_sealevel;temperature
72054;BMP280;59918;51.280;7.950;2023-05-29T00:01:03;98453.78;;;11.93
72054;BMP280;59918;51.280;7.950;2023-05-29T00:03:28;98449.78;;;11.90
72054;BMP280;59918;51.280;7.950;2023-05-29T00:05:53;98454.75;;;11.85
72054;BMP280;59918;51.280;7.950;2023-05-29T00:08:18;98462.88;;;11.82
72054;BMP280;59918;51.280;7.950;2023-05-29T00:10:43;98458.31;;;11.78
72054;BMP280;59918;51.280;7.950;2023-05-29T00:13:09;98459.50;;;11.75
72054;BMP280;59918;51.280;7.950;2023-05-29T00:15:37;98457.09;;;11.74
72054;BMP280;59918;51.280;7.950;2023-05-29T00:18:02;98450.94;;;11.68
72054;BMP280;59918;51.280;7.950;2023-05-29T00:20:27;98451.34;;;11.59
72054;BMP280;59918;51.280;7.950;2023-05-29T00:22:53;98446.56;;;11.50
72054;BMP280;59918;51.280;7.950;2023-05-29T00:25:18;98454.88;;;11.45
72054;BMP280;59918;51.280;7.950;2023-05-29T00:27:43;98456.22;;;11.41
72054;BMP280;59918;51.280;7.950;2023-05-29T00:30:14;98459.94;;;11.39
72054;BMP280;59918;51.280;7.950;2023-05-29T00:32:39;98453.22;;;11.38
72054;BMP280;59918;51.280;7.950;2023-05-29T00:35:05;98457.97;;;11.34
72054;BMP280;59918;51.280;7.950;2023-05-29T00:37:30;98453.41;;;11.30
72054;BMP280;59918;51.280;7.950;2023-05-29T00:39:56;98457.34;;;11.26
72054;BMP280;59918;51.280;7.950;2023-05-29T00:42:27;98455.94;;;11.24
72054;BMP280;59918;51.280;7.950;2023-05-29T00:44:52;98458.72;;;11.22
72054;BMP280;59918;51.280;7.950;2023-05-29T00:47:20;98463.03;;;11.22
72054;BMP280;59918;51.280;7.950;2023-05-29T00:49:51;98458.66;;;11.16
72054;BMP280;59918;51.280;7.950;2023-05-29T00:52:18;98468.16;;;11.09
72054;BMP280;59918;51.280;7.950;2023-05-29T00:54:54;98464.97;;;11.07
72054;BMP280;59918;51.280;7.950;2023-05-29T00:57:19;98479.38;;;11.01
72054;BMP280;59918;51.280;7.950;2023-05-29T00:59:48;98477.81;;;11.00
72054;BMP280;59918;51.280;7.950;2023-05-29T01:02:16;98474.03;;;10.96
72054;BMP280;59918;51.280;7.950;2023-05-29T01:04:42;98482.13;;;10.93
72054;BMP280;59918;51.280;7.950;2023-05-29T01:07:15;98479.34;;;10.89
72054;BMP280;59918;51.280;7.950;2023-05-29T01:09:41;98479.09;;;10.84
72054;BMP280;59918;51.280;7.950;2023-05-29T01:28:32;98490.72;;;10.73
72054;BMP280;59918;51.280;7.950;2023-05-29T01:31:05;98502.75;;;10.73
72054;BMP280;59918;51.280;7.950;2023-05-29T01:33:32;98502.16;;;10.71
72054;BMP280;59918;51.280;7.950;2023-05-29T01:36:04;98504.72;;;10.71
72054;BMP280;59918;51.280;7.950;2023-05-29T01:38:29;98500.34;;;10.65
72054;BMP280;59918;51.280;7.950;2023-05-29T01:40:54;98506.09;;;10.67
72054;BMP280;59918;51.280;7.950;2023-05-29T01:43:19;98505.13;;;10.68
72054;BMP280;59918;51.280;7.950;2023-05-29T01:45:45;98507.50;;;10.69
72054;BMP280;59918;51.280;7.950;2023-05-29T01:48:13;98507.91;;;10.73
72054;BMP280;59918;51.280;7.950;2023-05-29T01:50:38;98510.69;;;10.71
72054;BMP280;59918;51.280;7.950;2023-05-29T01:53:05;98515.84;;;10.71
72054;BMP280;59918;51.280;7.950;2023-05-29T01:55:30;98512.44;;;10.71
72054;BMP280;59918;51.280;7.950;2023-05-29T01:57:55;98514.41;;;10.69
72054;BMP280;59918;51.280;7.950;2023-05-29T02:00:21;98513.25;;;10.71
72054;BMP280;59918;51.280;7.950;2023-05-29T02:02:52;98517.06;;;10.75
72054;BMP280;59918;51.280;7.950;2023-05-29T02:05:17;98518.44;;;10.78
72054;BMP280;59918;51.280;7.950;2023-05-29T02:07:42;98519.09;;;10.86
72054;BMP280;59918;51.280;7.950;2023-05-29T02:10:08;98522.34;;;11.01
72054;BMP280;59918;51.280;7.950;2023-05-29T02:12:33;98517.50;;;11.19
72054;BMP280;59918;51.280;7.950;2023-05-29T02:15:02;98516.59;;;11.39
72054;BMP280;59918;51.280;7.950;2023-05-29T02:17:27;98523.06;;;11.56
72054;BMP280;59918;51.280;7.950;2023-05-29T02:19:52;98522.13;;;11.69
72054;BMP280;59918;51.280;7.950;2023-05-29T02:22:18;98523.94;;;11.82
72054;BMP280;59918;51.280;7.950;2023-05-29T02:24:43;98527.94;;;11.91
72054;BMP280;59918;51.280;7.950;2023-05-29T02:27:08;98531.13;;;11.99
72054;BMP280;59918;51.280;7.950;2023-05-29T02:29:37;98525.78;;;12.07
72054;BMP280;59918;51.280;7.950;2023-05-29T02:32:02;98526.59;;;12.14
72054;BMP280;59918;51.280;7.950;2023-05-29T02:34:27;98527.78;;;12.18
72054;BMP280;59918;51.280;7.950;2023-05-29T02:36:53;98528.78;;;12.23
72054;BMP280;59918;51.280;7.950;2023-05-29T02:39:18;98525.81;;;12.26
72054;BMP280;59918;51.280;7.950;2023-05-29T02:41:44;98534.16;;;12.28
72054;BMP280;59918;51.280;7.950;2023-05-29T02:44:15;98535.34;;;12.32
72054;BMP280;59918;51.280;7.950;2023-05-29T02:46:40;98538.72;;;12.33
72054;BMP280;59918;51.280;7.950;2023-05-29T02:49:05;98542.28;;;12.32
72054;BMP280;59918;51.280;7.950;2023-05-29T02:51:30;98542.06;;;12.33
72054;BMP280;59918;51.280;7.950;2023-05-29T02:53:56;98542.88;;;12.34
72054;BMP280;59918;51.280;7.950;2023-05-29T02:56:24;98547.63;;;12.37
72054;BMP280;59918;51.280;7.950;2023-05-29T02:58:52;98548.25;;;12.38
72054;BMP280;59918;51.280;7.950;2023-05-29T03:01:18;98549.03;;;12.39
72054;BMP280;59918;51.280;7.950;2023-05-29T03:03:43;98549.84;;;12.39
72054;BMP280;59918;51.280;7.950;2023-05-29T03:06:08;98543.47;;;12.42
72054;BMP280;59918;51.280;7.950;2023-05-29T03:08:37;98548.44;;;12.43
72054;BMP280;59918;51.280;7.950;2023-05-29T03:11:02;98554.22;;;12.45
72054;BMP280;59918;51.280;7.950;2023-05-29T03:13:27;98551.41;;;12.47
72054;BMP280;59918;51.280;7.950;2023-05-29T03:15:52;98554.00;;;12.47
72054;BMP280;59918;51.280;7.950;2023-05-29T03:18:18;98555.59;;;12.48
72054;BMP280;59918;51.280;7.950;2023-05-29T03:20:43;98557.16;;;12.49
72054;BMP280;59918;51.280;7.950;2023-05-29T03:23:08;98551.81;;;12.50
72054;BMP280;59918;51.280;7.950;2023-05-29T03:25:39;98556.97;;;12.50
72054;BMP280;59918;51.280;7.950;2023-05-29T03:28:05;98554.59;;;12.49
72054;BMP280;59918;51.280;7.950;2023-05-29T03:30:30;98548.63;;;12.48
72054;BMP280;59918;51.280;7.950;2023-05-29T03:32:55;98551.81;;;12.50
72054;BMP280;59918;51.280;7.950;2023-05-29T03:35:20;98546.66;;;12.50
72054;BMP280;59918;51.280;7.950;2023-05-29T03:37:51;98548.25;;;12.51
72054;BMP280;59918;51.280;7.950;2023-05-29T03:40:17;98545.69;;;12.51
72054;BMP280;59918;51.280;7.950;2023-05-29T03:42:42;98540.28;;;12.53
72054;BMP280;59918;51.280;7.950;2023-05-29T03:45:07;98544.28;;;12.55
72054;BMP280;59918;51.280;7.950;2023-05-29T03:47:33;98539.91;;;12.56
72054;BMP280;59918;51.280;7.950;2023-05-29T03:50:04;98549.03;;;12.58
72054;BMP280;59918;51.280;7.950;2023-05-29T03:52:30;98545.06;;;12.56
72054;BMP280;59918;51.280;7.950;2023-05-29T03:54:55;98544.06;;;12.57
72054;BMP280;59918;51.280;7.950;2023-05-29T03:57:20;98541.28;;;12.58
72054;BMP280;59918;51.280;7.950;2023-05-29T03:59:48;98550.22;;;12.62
72054;BMP280;59918;51.280;7.950;2023-05-29T04:02:14;98546.66;;;12.63
72054;BMP280;59918;51.280;7.950;2023-05-29T04:04:39;98555.00;;;12.65
72054;BMP280;59918;51.280;7.950;2023-05-29T04:07:05;98548.66;;;12.68
72054;BMP280;59918;51.280;7.950;2023-05-29T04:09:30;98554.00;;;12.66
72054;BMP280;59918;51.280;7.950;2023-05-29T04:11:55;98553.63;;;12.63
72054;BMP280;59918;51.280;7.950;2023-05-29T04:14:28;98560.53;;;12.62
72054;BMP280;59918;51.280;7.950;2023-05-29T04:16:53;98560.53;;;12.62
72054;BMP280;59918;51.280;7.950;2023-05-29T04:19:19;98555.81;;;12.59
72054;BMP280;59918;51.280;7.950;2023-05-29T04:21:44;98558.16;;;12.61
72054;BMP280;59918;51.280;7.950;2023-05-29T04:24:18;98561.38;;;12.63
72054;BMP280;59918;51.280;7.950;2023-05-29T04:26:43;98566.91;;;12.66
72054;BMP280;59918;51.280;7.950;2023-05-29T04:29:08;98575.06;;;12.70
72054;BMP280;59918;51.280;7.950;2023-05-29T04:31:42;98578.03;;;12.73
72054;BMP280;59918;51.280;7.950;2023-05-29T04:34:08;98588.94;;;12.75
72054;BMP280;59918;51.280;7.950;2023-05-29T04:36:33;98588.94;;;12.75
72054;BMP280;59918;51.280;7.950;2023-05-29T04:39:05;98592.72;;;12.73
72054;BMP280;59918;51.280;7.950;2023-05-29T04:41:30;98597.69;;;12.68
72054;BMP280;59918;51.280;7.950;2023-05-29T04:43:55;98595.09;;;12.68
72054;BMP280;59918;51.280;7.950;2023-05-29T04:46:21;98591.31;;;12.70
72054;BMP280;59918;51.280;7.950;2023-05-29T04:48:50;98587.16;;;12.75
72054;BMP280;59918;51.280;7.950;2023-05-29T04:51:16;98574.44;;;12.74
72054;BMP280;59918;51.280;7.950;2023-05-29T04:53:41;98583.22;;;12.79
72054;BMP280;59918;51.280;7.950;2023-05-29T04:56:07;98581.22;;;12.88
72054;BMP280;59918;51.280;7.950;2023-05-29T04:58:32;98579.63;;;12.93
72054;BMP280;59918;51.280;7.950;2023-05-29T05:00:57;98580.22;;;12.95
72054;BMP280;59918;51.280;7.950;2023-05-29T05:03:29;98575.47;;;12.99
72054;BMP280;59918;51.280;7.950;2023-05-29T05:05:54;98585.00;;;12.85
72054;BMP280;59918;51.280;7.950;2023-05-29T05:08:20;98572.91;;;12.92
72054;BMP280;59918;51.280;7.950;2023-05-29T05:10:45;98584.78;;;13.00
72054;BMP280;59918;51.280;7.950;2023-05-29T05:13:13;98586.59;;;13.12
72054;BMP280;59918;51.280;7.950;2023-05-29T05:15:38;98592.94;;;13.16
72054;BMP280;59918;51.280;7.950;2023-05-29T05:18:04;98593.50;;;13.24
72054;BMP280;59918;51.280;7.950;2023-05-29T05:20:29;98598.88;;;13.29
72054;BMP280;59918;51.280;7.950;2023-05-29T05:22:54;98600.22;;;13.38
72054;BMP280;59918;51.280;7.950;2023-05-29T05:25:19;98595.28;;;13.43
72054;BMP280;59918;51.280;7.950;2023-05-29T05:27:45;98598.03;;;13.48
72054;BMP280;59918;51.280;7.950;2023-05-29T05:30:16;98609.16;;;13.55
72054;BMP280;59918;51.280;7.950;2023-05-29T05:32:41;98614.50;;;13.60
72054;BMP280;59918;51.280;7.950;2023-05-29T05:35:06;98614.50;;;13.60
72054;BMP280;59918;51.280;7.950;2023-05-29T05:37:32;98612.50;;;13.62
72054;BMP280;59918;51.280;7.950;2023-05-29T05:39:57;98618.44;;;13.69
72054;BMP280;59918;51.280;7.950;2023-05-29T05:42:28;98613.44;;;13.74
72054;BMP280;59918;51.280;7.950;2023-05-29T05:44:53;98609.25;;;13.79
72054;BMP280;59918;51.280;7.950;2023-05-29T05:47:19;98617.56;;;13.87
72054;BMP280;59918;51.280;7.950;2023-05-29T05:49:44;98619.34;;;13.93
72054;BMP280;59918;51.280;7.950;2023-05-29T05:52:09;98609.59;;;14.02
72054;BMP280;59918;51.280;7.950;2023-05-29T05:54:34;98619.72;;;14.10
72054;BMP280;59918;51.280;7.950;2023-05-29T05:57:03;98609.13;;;14.18
72054;BMP280;59918;51.280;7.950;2023-05-29T05:59:28;98604.75;;;14.18
72054;BMP280;59918;51.280;7.950;2023-05-29T06:01:53;98611.47;;;14.25
72054;BMP280;59918;51.280;7.950;2023-05-29T06:04:19;98610.00;;;14.36
72054;BMP280;59918;51.280;7.950;2023-05-29T06:06:44;98608.34;;;14.48
72054;BMP280;59918;51.280;7.950;2023-05-29T06:09:09;98611.25;;;14.58
72054;BMP280;59918;51.280;7.950;2023-05-29T06:11:34;98605.63;;;14.67
72054;BMP280;59918;51.280;7.950;2023-05-29T06:14:03;98609.53;;;14.76
72054;BMP280;59918;51.280;7.950;2023-05-29T06:16:29;98620.66;;;14.83
72054;BMP280;59918;51.280;7.950;2023-05-29T06:18:54;98615.03;;;14.86
72054;BMP280;59918;51.280;7.950;2023-05-29T06:21:19;98619.75;;;14.95
72054;BMP280;59918;51.280;7.950;2023-05-29T06:23:45;98618.84;;;15.07
72054;BMP280;59918;51.280;7.950;2023-05-29T06:26:10;98625.38;;;15.16
72054;BMP280;59918;51.280;7.950;2023-05-29T06:28:35;98615.75;;;15.23
72054;BMP280;59918;51.280;7.950;2023-05-29T06:31:03;98617.78;;;15.39
72054;BMP280;59918;51.280;7.950;2023-05-29T06:33:28;98619.75;;;15.43
72054;BMP280;59918;51.280;7.950;2023-05-29T06:35:54;98615.53;;;15.42
72054;BMP280;59918;51.280;7.950;2023-05-29T06:38:19;98616.78;;;15.58
72054;BMP280;59918;51.280;7.950;2023-05-29T06:40:44;98616.94;;;15.63
72054;BMP280;59918;51.280;7.950;2023-05-29T06:43:09;98614.41;;;15.56
72054;BMP280;59918;51.280;7.950;2023-05-29T06:45:35;98613.03;;;15.54
72054;BMP280;59918;51.280;7.950;2023-05-29T06:48:06;98604.69;;;15.52
72054;BMP280;59918;51.280;7.950;2023-05-29T06:50:31;98601.09;;;15.53
72054;BMP280;59918;51.280;7.950;2023-05-29T06:52:56;98601.09;;;15.53
72054;BMP280;59918;51.280;7.950;2023-05-29T06:55:22;98595.09;;;15.52
72054;BMP280;59918;51.280;7.950;2023-05-29T06:57:47;98599.94;;;15.49
72054;BMP280;59918;51.280;7.950;2023-05-29T07:00:18;98607.66;;;15.55
72054;BMP280;59918;51.280;7.950;2023-05-29T07:02:44;98600.16;;;15.65
72054;BMP280;59918;51.280;7.950;2023-05-29T07:05:09;98608.63;;;15.72
72054;BMP280;59918;51.280;7.950;2023-05-29T07:07:34;98612.97;;;15.78
72054;BMP280;59918;51.280;7.950;2023-05-29T07:09:59;98614.13;;;15.82
72054;BMP280;59918;51.280;7.950;2023-05-29T07:12:28;98615.63;;;15.89
72054;BMP280;59918;51.280;7.950;2023-05-29T07:14:53;98610.13;;;15.97
72054;BMP280;59918;51.280;7.950;2023-05-29T07:17:18;98613.25;;;16.06
72054;BMP280;59918;51.280;7.950;2023-05-29T07:19:44;98610.91;;;16.15
72054;BMP280;59918;51.280;7.950;2023-05-29T07:22:09;98602.91;;;16.17
72054;BMP280;59918;51.280;7.950;2023-05-29T07:24:34;98605.66;;;16.22
72054;BMP280;59918;51.280;7.950;2023-05-29T07:26:59;98603.19;;;16.27
72054;BMP280;59918;51.280;7.950;2023-05-29T07:29:30;98607.06;;;16.36
72054;BMP280;59918;51.280;7.950;2023-05-29T07:31:56;98598.72;;;16.34
72054;BMP280;59918;51.280;7.950;2023-05-29T07:34:21;98596.13;;;16.34
72054;BMP280;59918;51.280;7.950;2023-05-29T07:37:05;98611.84;;;16.50
72054;BMP280;59918;51.280;7.950;2023-05-29T07:39:31;98608.63;;;16.66
72054;BMP280;59918;51.280;7.950;2023-05-29T07:41:57;98615.31;;;16.84
72054;BMP280;59918;51.280;7.950;2023-05-29T07:44:22;98615.44;;;17.01
72054;BMP280;59918;51.280;7.950;2023-05-29T07:46:56;98619.78;;;17.18
72054;BMP280;59918;51.280;7.950;2023-05-29T07:49:22;98622.41;;;17.41
72054;BMP280;59918;51.280;7.950;2023-05-29T07:51:47;98623.19;;;17.53
72054;BMP280;59918;51.280;7.950;2023-05-29T07:54:16;98617.84;;;17.70
72054;BMP280;59918;51.280;7.950;2023-05-29T07:56:41;98624.94;;;17.86
72054;BMP280;59918;51.280;7.950;2023-05-29T07:59:06;98626.34;;;18.05
72054;BMP280;59918;51.280;7.950;2023-05-29T08:01:32;98630.75;;;18.16
72054;BMP280;59918;51.280;7.950;2023-05-29T08:03:57;98625.91;;;18.19
72054;BMP280;59918;51.280;7.950;2023-05-29T08:06:22;98624.03;;;18.31
72054;BMP280;59918;51.280;7.950;2023-05-29T08:08:47;98628.38;;;18.42
72054;BMP280;59918;51.280;7.950;2023-05-29T08:11:16;98629.03;;;18.49
72054;BMP280;59918;51.280;7.950;2023-05-29T08:13:41;98632.47;;;18.65
72054;BMP280;59918;51.280;7.950;2023-05-29T08:16:06;98630.44;;;18.84
72054;BMP280;59918;51.280;7.950;2023-05-29T08:18:32;98629.56;;;18.95
72054;BMP280;59918;51.280;7.950;2023-05-29T08:20:57;98634.19;;;19.04
72054;BMP280;59918;51.280;7.950;2023-05-29T08:23:22;98631.56;;;19.20
72054;BMP280;59918;51.280;7.950;2023-05-29T08:25:48;98631.47;;;19.32
72054;BMP280;59918;51.280;7.950;2023-05-29T08:28:19;98636.84;;;19.41
72054;BMP280;59918;51.280;7.950;2023-05-29T08:30:44;98632.09;;;19.55
72054;BMP280;59918;51.280;7.950;2023-05-29T08:33:09;98628.19;;;19.74
72054;BMP280;59918;51.280;7.950;2023-05-29T08:35:34;98632.09;;;19.92
72054;BMP280;59918;51.280;7.950;2023-05-29T08:38:00;98623.16;;;20.10
72054;BMP280;59918;51.280;7.950;2023-05-29T08:40:28;98635.34;;;20.25
72054;BMP280;59918;51.280;7.950;2023-05-29T08:43:16;98627.38;;;20.37
72054;BMP280;59918;51.280;7.950;2023-05-29T08:45:44;98630.28;;;20.40
72054;BMP280;59918;51.280;7.950;2023-05-29T08:48:10;98626.94;;;20.45
72054;BMP280;59918;51.280;7.950;2023-05-29T08:50:37;98633.94;;;20.65
72054;BMP280;59918;51.280;7.950;2023-05-29T08:53:06;98622.81;;;20.75
72054;BMP280;59918;51.280;7.950;2023-05-29T08:55:31;98629.66;;;20.81
72054;BMP280;59918;51.280;7.950;2023-05-29T08:57:57;98632.09;;;20.87
72054;BMP280;59918;51.280;7.950;2023-05-29T09:00:22;98626.94;;;20.97
72054;BMP280;59918;51.280;7.950;2023-05-29T09:02:48;98636.19;;;21.09
72054;BMP280;59918;51.280;7.950;2023-05-29T09:05:19;98627.41;;;21.30
72054;BMP280;59918;51.280;7.950;2023-05-29T09:07:44;98624.16;;;21.44
72054;BMP280;59918;51.280;7.950;2023-05-29T09:10:10;98620.59;;;21.60
72054;BMP280;59918;51.280;7.950;2023-05-29T09:12:35;98621.47;;;21.75
72054;BMP280;59918;51.280;7.950;2023-05-29T09:15:09;98615.50;;;21.95
72054;BMP280;59918;51.280;7.950;2023-05-29T09:17:41;98619.72;;;22.00
72054;BMP280;59918;51.280;7.950;2023-05-29T09:20:17;98617.91;;;22.06
72054;BMP280;59918;51.280;7.950;2023-05-29T09:22:58;98625.06;;;22.20
72054;BMP280;59918;51.280;7.950;2023-05-29T09:25:26;98618.28;;;22.34
72054;BMP280;59918;51.280;7.950;2023-05-29T09:28:07;98615.72;;;22.59
72054;BMP280;59918;51.280;7.950;2023-05-29T09:30:45;98620.72;;;22.80
72054;BMP280;59918;51.280;7.950;2023-05-29T09:33:12;98623.13;;;23.01
72054;BMP280;59918;51.280;7.950;2023-05-29T09:35:42;98618.63;;;23.21
72054;BMP280;59918;51.280;7.950;2023-05-29T09:38:09;98628.84;;;23.43
72054;BMP280;59918;51.280;7.950;2023-05-29T09:40:36;98630.38;;;23.68
72054;BMP280;59918;51.280;7.950;2023-05-29T09:43:05;98626.38;;;23.85
72054;BMP280;59918;51.280;7.950;2023-05-29T09:45:37;98626.59;;;23.94
72054;BMP280;59918;51.280;7.950;2023-05-29T09:48:08;98623.63;;;24.15
72054;BMP280;59918;51.280;7.950;2023-05-29T09:50:36;98628.88;;;24.25
72054;BMP280;59918;51.280;7.950;2023-05-29T09:53:19;98633.25;;;24.39
72054;BMP280;59918;51.280;7.950;2023-05-29T09:55:44;98626.03;;;24.59
72054;BMP280;59918;51.280;7.950;2023-05-29T09:58:10;98630.47;;;24.64
72054;BMP280;59918;51.280;7.950;2023-05-29T10:00:36;98629.81;;;24.82
72054;BMP280;59918;51.280;7.950;2023-05-29T10:03:07;98630.97;;;25.09
72054;BMP280;59918;51.280;7.950;2023-05-29T10:05:32;98634.38;;;25.37
72054;BMP280;59918;51.280;7.950;2023-05-29T10:07:59;98641.47;;;25.37
72054;BMP280;59918;51.280;7.950;2023-05-29T10:10:31;98645.34;;;25.49
72054;BMP280;59918;51.280;7.950;2023-05-29T10:12:57;98643.19;;;25.79
72054;BMP280;59918;51.280;7.950;2023-05-29T10:15:31;98645.19;;;25.87
72054;BMP280;59918;51.280;7.950;2023-05-29T10:18:02;98640.16;;;26.14
72054;BMP280;59918;51.280;7.950;2023-05-29T10:20:33;98642.75;;;26.74
72054;BMP280;59918;51.280;7.950;2023-05-29T10:23:00;98633.78;;;27.24
72054;BMP280;59918;51.280;7.950;2023-05-29T10:25:33;98627.69;;;27.55
72054;BMP280;59918;51.280;7.950;2023-05-29T10:28:00;98628.38;;;27.88
72054;BMP280;59918;51.280;7.950;2023-05-29T10:30:43;98622.19;;;28.32
72054;BMP280;59918;51.280;7.950;2023-05-29T10:33:19;98628.53;;;28.58
72054;BMP280;59918;51.280;7.950;2023-05-29T10:35:55;98622.28;;;28.75
72054;BMP280;59918;51.280;7.950;2023-05-29T10:38:20;98618.56;;;28.98
72054;BMP280;59918;51.280;7.950;2023-05-29T10:40:46;98624.47;;;29.17
72054;BMP280;59918;51.280;7.950;2023-05-29T10:43:43;98612.78;;;28.96
72054;BMP280;59918;51.280;7.950;2023-05-29T10:46:09;98608.63;;;28.82
72054;BMP280;59918;51.280;7.950;2023-05-29T10:48:44;98614.34;;;28.97
72054;BMP280;59918;51.280;7.950;2023-05-29T10:51:24;98603.41;;;29.42
72054;BMP280;59918;51.280;7.950;2023-05-29T10:53:55;98602.75;;;29.67
72054;BMP280;59918;51.280;7.950;2023-05-29T10:56:22;98603.47;;;29.89
72054;BMP280;59918;51.280;7.950;2023-05-29T10:58:57;98601.09;;;30.59
72054;BMP280;59918;51.280;7.950;2023-05-29T11:01:23;98601.56;;;30.87
72054;BMP280;59918;51.280;7.950;2023-05-29T11:03:49;98600.38;;;31.29
72054;BMP280;59918;51.280;7.950;2023-05-29T11:06:19;98596.09;;;31.62
72054;BMP280;59918;51.280;7.950;2023-05-29T11:08:45;98585.78;;;31.52
72054;BMP280;59918;51.280;7.950;2023-05-29T11:11:30;98592.91;;;31.31
72054;BMP280;59918;51.280;7.950;2023-05-29T11:14:00;98595.06;;;31.29
72054;BMP280;59918;51.280;7.950;2023-05-29T11:18:55;98596.19;;;31.65
72054;BMP280;59918;51.280;7.950;2023-05-29T11:26:45;98591.16;;;33.34
72054;BMP280;59918;51.280;7.950;2023-05-29T11:29:11;98590.78;;;33.56
72054;BMP280;59918;51.280;7.950;2023-05-29T11:31:42;98586.34;;;33.72
72054;BMP280;59918;51.280;7.950;2023-05-29T11:34:09;98582.78;;;33.68
72054;BMP280;59918;51.280;7.950;2023-05-29T11:36:42;98585.44;;;33.68
72054;BMP280;59918;51.280;7.950;2023-05-29T11:39:08;98581.47;;;33.97
72054;BMP280;59918;51.280;7.950;2023-05-29T11:41:34;98582.25;;;34.49
72054;BMP280;59918;51.280;7.950;2023-05-29T11:44:01;98564.13;;;34.69
72054;BMP280;59918;51.280;7.950;2023-05-29T11:46:29;98563.19;;;34.89
72054;BMP280;59918;51.280;7.950;2023-05-29T11:48:54;98565.88;;;35.20
72054;BMP280;59918;51.280;7.950;2023-05-29T11:51:20;98565.97;;;35.08
72054;BMP280;59918;51.280;7.950;2023-05-29T11:53:47;98563.88;;;35.29
72054;BMP280;59918;51.280;7.950;2023-05-29T11:56:12;98564.88;;;35.55
72054;BMP280;59918;51.280;7.950;2023-05-29T11:58:42;98552.53;;;35.81
72054;BMP280;59918;51.280;7.950;2023-05-29T12:01:07;98551.09;;;36.36
72054;BMP280;59918;51.280;7.950;2023-05-29T12:03:43;98551.09;;;36.55
72054;BMP280;59918;51.280;7.950;2023-05-29T12:06:11;98553.31;;;36.90
72054;BMP280;59918;51.280;7.950;2023-05-29T12:08:43;98551.03;;;37.33
72054;BMP280;59918;51.280;7.950;2023-05-29T12:11:08;98560.09;;;37.48
72054;BMP280;59918;51.280;7.950;2023-05-29T12:13:36;98555.09;;;37.46
72054;BMP280;59918;51.280;7.950;2023-05-29T12:16:05;98561.53;;;37.20
72054;BMP280;59918;51.280;7.950;2023-05-29T12:18:31;98552.41;;;37.46
72054;BMP280;59918;51.280;7.950;2023-05-29T12:21:01;98563.03;;;37.87
72054;BMP280;59918;51.280;7.950;2023-05-29T12:23:29;98556.41;;;38.33
72054;BMP280;59918;51.280;7.950;2023-05-29T12:25:56;98547.72;;;38.42
72054;BMP280;59918;51.280;7.950;2023-05-29T12:28:22;98557.44;;;38.25
72054;BMP280;59918;51.280;7.950;2023-05-29T12:30:48;98560.00;;;38.14
72054;BMP280;59918;51.280;7.950;2023-05-29T12:33:25;98558.69;;;38.31
72054;BMP280;59918;51.280;7.950;2023-05-29T12:35:53;98556.94;;;38.16
72054;BMP280;59918;51.280;7.950;2023-05-29T12:38:19;98541.66;;;38.81
72054;BMP280;59918;51.280;7.950;2023-05-29T12:40:48;98541.53;;;39.50
72054;BMP280;59918;51.280;7.950;2023-05-29T12:43:13;98544.97;;;40.00
72054;BMP280;59918;51.280;7.950;2023-05-29T12:45:42;98535.88;;;40.29
72054;BMP280;59918;51.280;7.950;2023-05-29T12:48:07;98541.06;;;40.65
72054;BMP280;59918;51.280;7.950;2023-05-29T12:50:43;98540.69;;;40.80
72054;BMP280;59918;51.280;7.950;2023-05-29T12:53:09;98549.38;;;40.39
72054;BMP280;59918;51.280;7.950;2023-05-29T12:55:37;98527.16;;;40.53
72054;BMP280;59918;51.280;7.950;2023-05-29T12:58:12;98543.47;;;41.15
72054;BMP280;59918;51.280;7.950;2023-05-29T13:00:44;98536.19;;;41.39
72054;BMP280;59918;51.280;7.950;2023-05-29T13:03:10;98536.94;;;41.47
72054;BMP280;59918;51.280;7.950;2023-05-29T13:05:35;98535.81;;;41.65
72054;BMP280;59918;51.280;7.950;2023-05-29T13:08:01;98546.91;;;42.02
72054;BMP280;59918;51.280;7.950;2023-05-29T13:10:29;98544.25;;;41.60
72054;BMP280;59918;51.280;7.950;2023-05-29T13:12:55;98545.00;;;41.19
72054;BMP280;59918;51.280;7.950;2023-05-29T13:15:21;98543.88;;;41.20
72054;BMP280;59918;51.280;7.950;2023-05-29T13:17:47;98538.84;;;41.12
72054;BMP280;59918;51.280;7.950;2023-05-29T13:20:13;98534.59;;;41.04
72054;BMP280;59918;51.280;7.950;2023-05-29T13:22:43;98538.84;;;41.08
72054;BMP280;59918;51.280;7.950;2023-05-29T13:25:11;98525.34;;;41.19
72054;BMP280;59918;51.280;7.950;2023-05-29T13:27:45;98518.84;;;41.34
72054;BMP280;59918;51.280;7.950;2023-05-29T13:30:11;98528.84;;;41.50
72054;BMP280;59918;51.280;7.950;2023-05-29T13:32:37;98519.97;;;41.84
72054;BMP280;59918;51.280;7.950;2023-05-29T13:35:08;98514.91;;;42.00
72054;BMP280;59918;51.280;7.950;2023-05-29T13:37:34;98514.22;;;41.69
72054;BMP280;59918;51.280;7.950;2023-05-29T13:40:00;98516.13;;;41.68
72054;BMP280;59918;51.280;7.950;2023-05-29T13:42:25;98511.00;;;42.12
72054;BMP280;59918;51.280;7.950;2023-05-29T13:44:53;98505.72;;;42.69
72054;BMP280;59918;51.280;7.950;2023-05-29T13:47:18;98505.44;;;43.14
72054;BMP280;59918;51.280;7.950;2023-05-29T13:49:46;98508.22;;;43.54
72054;BMP280;59918;51.280;7.950;2023-05-29T13:52:11;98509.13;;;43.77
72054;BMP280;59918;51.280;7.950;2023-05-29T13:54:37;98508.75;;;43.78
72054;BMP280;59918;51.280;7.950;2023-05-29T13:57:06;98496.69;;;44.16
72054;BMP280;59918;51.280;7.950;2023-05-29T13:59:32;98497.69;;;44.58
72054;BMP280;59918;51.280;7.950;2023-05-29T14:01:57;98499.38;;;44.49
72054;BMP280;59918;51.280;7.950;2023-05-29T14:04:23;98501.03;;;44.43
72054;BMP280;59918;51.280;7.950;2023-05-29T14:06:48;98505.38;;;44.63
72054;BMP280;59918;51.280;7.950;2023-05-29T14:09:13;98498.38;;;44.92
72054;BMP280;59918;51.280;7.950;2023-05-29T14:11:42;98494.31;;;45.29
72054;BMP280;59918;51.280;7.950;2023-05-29T14:14:07;98498.25;;;45.48
72054;BMP280;59918;51.280;7.950;2023-05-29T14:16:33;98490.91;;;45.67
72054;BMP280;59918;51.280;7.950;2023-05-29T14:18:59;98489.16;;;45.57
72054;BMP280;59918;51.280;7.950;2023-05-29T14:21:24;98498.06;;;45.58
72054;BMP280;59918;51.280;7.950;2023-05-29T14:23:50;98484.81;;;45.60
72054;BMP280;59918;51.280;7.950;2023-05-29T14:26:18;98486.50;;;45.54
72054;BMP280;59918;51.280;7.950;2023-05-29T14:28:43;98478.94;;;45.42
72054;BMP280;59918;51.280;7.950;2023-05-29T14:31:09;98485.38;;;45.74
72054;BMP280;59918;51.280;7.950;2023-05-29T14:33:34;98492.34;;;45.94